createdAt,value
2023-02-16T16:09:58.751Z,67.50
2023-02-16T16:12:27.096Z,69.30
2023-02-16T16:14:56.163Z,70.80
2023-02-16T16:17:31.926Z,70.40
2023-02-16T16:20:37.339Z,69.90
2023-02-16T16:23:26.058Z,70.50
2023-02-16T16:25:53.964Z,66.00
2023-02-16T16:28:29.834Z,66.10
2023-02-16T16:31:21.183Z,66.40
2023-02-16T16:34:07.764Z,66.80
2023-02-16T16:36:47.618Z,66.90
2023-02-16T16:39:17.274Z,67.10
2023-02-16T16:42:10.327Z,67.50
2023-02-16T16:44:42.921Z,74.40
2023-02-16T16:47:24.618Z,76.30
2023-02-16T16:50:00.929Z,75.90
2023-02-16T16:52:48.287Z,76.00
2023-02-16T16:55:30.292Z,76.20
2023-02-16T16:58:06.095Z,76.80
2023-02-16T17:00:36.515Z,76.80
2023-02-16T17:03:06.167Z,76.90
2023-02-16T17:05:34.700Z,76.20
2023-02-16T17:08:04.883Z,77.00
2023-02-16T17:10:32.091Z,78.00
2023-02-16T17:13:00.672Z,78.30
2023-02-16T17:15:33.146Z,78.30
2023-02-16T17:18:00.818Z,78.90
2023-02-16T17:20:27.841Z,78.90
2023-02-16T17:22:54.807Z,78.20
2023-02-16T17:25:21.730Z,77.60
2023-02-16T17:27:48.659Z,77.20
2023-02-16T17:30:16.011Z,78.40
2023-02-16T17:32:43.066Z,78.90
2023-02-16T17:35:10.537Z,79.20
2023-02-16T17:37:37.499Z,79.20
2023-02-16T17:40:12.119Z,79.70
2023-02-16T17:42:39.173Z,79.30
2023-02-16T17:45:06.530Z,79.60
2023-02-16T17:47:33.803Z,79.70
2023-02-16T17:50:00.945Z,79.90
2023-02-16T17:52:28.027Z,80.50
2023-02-16T17:54:54.969Z,80.70
2023-02-16T17:57:21.916Z,79.60
2023-02-16T17:59:48.895Z,81.20
2023-02-16T18:02:15.861Z,81.70
2023-02-16T18:04:42.915Z,81.90
2023-02-16T18:07:19.867Z,81.50
2023-02-16T18:09:47.298Z,81.50
2023-02-16T18:12:14.630Z,81.30
2023-02-16T18:14:41.800Z,81.50
2023-02-16T18:17:11.640Z,81.50
2023-02-16T18:19:38.583Z,81.40
2023-02-16T18:22:05.502Z,81.80
2023-02-16T18:24:32.934Z,82.40
2023-02-16T18:27:00.189Z,81.60
2023-02-16T18:29:27.384Z,81.50
2023-02-16T18:31:54.471Z,82.20
2023-02-16T18:34:21.569Z,82.90
2023-02-16T18:36:48.539Z,82.40
2023-02-16T18:39:15.448Z,82.90
2023-02-16T18:41:42.445Z,82.60
2023-02-16T18:44:09.610Z,82.80
2023-02-16T18:46:36.571Z,83.10
2023-02-16T18:49:03.650Z,82.60
2023-02-16T18:51:32.070Z,82.00
2023-02-16T18:53:59.386Z,82.30
2023-02-16T18:56:27.634Z,82.80
2023-02-16T18:58:55.009Z,84.70
2023-02-16T19:01:31.207Z,84.10
2023-02-16T19:03:59.011Z,83.80
2023-02-16T19:06:29.688Z,83.50
2023-02-16T19:08:58.646Z,83.90
2023-02-16T19:11:28.211Z,83.60
2023-02-16T19:13:55.228Z,84.00
2023-02-16T19:16:22.462Z,83.50
2023-02-16T19:18:49.490Z,83.50
2023-02-16T19:21:16.435Z,83.20
2023-02-16T19:23:43.661Z,83.00
2023-02-16T19:26:13.149Z,83.40
2023-02-16T19:28:41.013Z,83.10
2023-02-16T19:31:21.126Z,83.60
2023-02-16T19:33:48.609Z,83.90
2023-02-16T19:36:16.568Z,82.70
2023-02-16T19:38:44.057Z,83.20
2023-02-16T19:41:27.085Z,84.10
2023-02-16T19:43:54.615Z,84.30
2023-02-16T19:46:22.018Z,84.70
2023-02-16T19:48:49.405Z,84.90
2023-02-16T19:51:17.099Z,84.90
2023-02-16T19:53:44.534Z,85.50
2023-02-16T19:56:22.613Z,85.60
2023-02-16T19:58:50.279Z,85.20
2023-02-16T20:01:20.426Z,86.20
2023-02-16T20:03:48.439Z,86.10
2023-02-16T20:06:19.481Z,86.30
2023-02-16T20:08:48.005Z,85.40
2023-02-16T20:11:17.248Z,85.10
2023-02-16T20:13:44.767Z,85.20
2023-02-16T20:16:12.886Z,85.00
2023-02-16T20:18:40.855Z,85.50
2023-02-16T20:21:14.179Z,86.30
2023-02-16T20:23:41.449Z,85.70
2023-02-16T20:26:21.365Z,85.80
2023-02-16T20:28:50.216Z,86.00
2023-02-16T20:31:30.037Z,86.00
2023-02-16T20:33:57.098Z,86.30
2023-02-16T20:36:24.127Z,86.00
2023-02-16T20:38:51.390Z,86.10
2023-02-16T20:41:19.693Z,85.50
2023-02-16T20:43:47.183Z,86.20
2023-02-16T20:46:15.309Z,86.20
2023-02-16T20:48:42.406Z,85.80
2023-02-16T20:51:11.323Z,86.10
2023-02-16T20:53:38.499Z,86.10
2023-02-16T20:56:14.893Z,86.30
2023-02-16T20:58:43.731Z,86.30
2023-02-16T21:01:21.565Z,86.40
2023-02-16T21:03:49.272Z,86.70
2023-02-16T21:06:16.455Z,85.60
2023-02-16T21:08:43.810Z,86.30
2023-02-16T21:11:11.080Z,85.80
2023-02-16T21:13:39.664Z,85.30
2023-02-16T21:16:10.293Z,85.80
2023-02-16T21:18:40.296Z,85.70
2023-02-16T21:21:08.453Z,85.60
2023-02-16T21:23:35.896Z,85.40
2023-02-16T21:26:05.816Z,85.90
2023-02-16T21:28:33.181Z,85.70
2023-02-16T21:31:21.862Z,86.20
2023-02-16T21:33:49.642Z,86.70
2023-02-16T21:36:20.084Z,86.60
2023-02-16T21:38:47.728Z,86.20
2023-02-16T21:41:27.792Z,86.30
2023-02-16T21:44:10.133Z,86.60
2023-02-16T21:46:42.623Z,86.30
2023-02-16T21:49:13.360Z,85.70
2023-02-16T21:51:41.763Z,85.50
2023-02-16T21:54:13.751Z,85.80
2023-02-16T21:56:48.340Z,85.50
2023-02-16T21:59:18.008Z,86.30
2023-02-16T22:01:48.008Z,86.70
2023-02-16T22:04:18.856Z,86.80
2023-02-16T22:06:47.957Z,86.50
2023-02-16T22:09:21.609Z,86.10
2023-02-16T22:11:49.576Z,86.10
2023-02-16T22:14:16.844Z,86.20
2023-02-16T22:16:45.820Z,86.20
2023-02-16T22:19:15.766Z,86.40
2023-02-16T22:21:44.201Z,86.50
2023-02-16T22:24:16.002Z,86.90
2023-02-16T22:26:43.343Z,86.60
2023-02-16T22:29:11.494Z,87.10
2023-02-16T22:31:39.426Z,87.40
2023-02-16T22:34:11.691Z,86.70
2023-02-16T22:36:38.897Z,85.70
2023-02-16T22:39:06.560Z,86.10
2023-02-16T22:41:34.403Z,86.20
2023-02-16T22:44:01.617Z,86.00
2023-02-16T22:46:30.135Z,86.60
2023-02-16T22:49:01.978Z,86.40
2023-02-16T22:51:30.325Z,86.50
2023-02-16T22:54:02.123Z,87.20
2023-02-16T22:56:29.986Z,87.20
2023-02-16T22:58:58.757Z,87.00
2023-02-16T23:01:27.582Z,86.50
2023-02-16T23:03:57.746Z,86.60
2023-02-16T23:06:31.166Z,86.30
2023-02-16T23:09:01.332Z,86.60
2023-02-16T23:11:28.774Z,87.00
2023-02-16T23:13:56.223Z,87.20
2023-02-16T23:16:25.200Z,87.70
2023-02-16T23:18:52.696Z,87.00
2023-02-16T23:21:22.968Z,87.50
2023-02-16T23:23:51.291Z,87.70
2023-02-16T23:26:20.333Z,87.30
2023-02-16T23:28:51.671Z,86.40
2023-02-16T23:31:19.824Z,86.30
2023-02-16T23:33:47.733Z,86.70
2023-02-16T23:36:14.689Z,87.40
2023-02-16T23:38:41.612Z,87.20
2023-02-16T23:41:13.534Z,87.40
2023-02-16T23:43:40.523Z,88.20
2023-02-16T23:46:08.120Z,88.00
2023-02-16T23:48:35.453Z,88.40
2023-02-16T23:51:02.615Z,87.90
2023-02-16T23:53:29.525Z,87.70
2023-02-16T23:56:08.686Z,88.00
2023-02-16T23:58:41.433Z,88.20
